createdAt,value
2023-05-14T01:04:36.231Z,92.71
2023-05-14T01:06:50.691Z,92.53
2023-05-14T01:09:03.144Z,92.38
2023-05-14T01:11:13.446Z,92.37
2023-05-14T01:13:24.754Z,92.54
2023-05-14T01:15:33.611Z,92.42
2023-05-14T01:17:42.959Z,92.27
2023-05-14T01:19:49.752Z,91.92
2023-05-14T01:21:54.519Z,91.84
2023-05-14T01:23:59.215Z,92.20
2023-05-14T01:26:04.478Z,92.57
2023-05-14T01:28:16.823Z,92.57
2023-05-14T01:30:29.543Z,92.53
2023-05-14T01:32:35.600Z,92.82
2023-05-14T01:34:42.056Z,92.76
2023-05-14T01:36:48.504Z,92.84
2023-05-14T01:38:54.184Z,93.02
2023-05-14T01:41:02.713Z,93.10
2023-05-14T01:43:08.018Z,93.23
2023-05-14T01:45:14.128Z,93.07
2023-05-14T01:47:19.219Z,92.96
2023-05-14T01:49:23.958Z,93.01
2023-05-14T01:51:28.774Z,92.98
2023-05-14T01:53:33.460Z,92.96
2023-05-14T01:55:38.265Z,92.89
2023-05-14T01:57:42.882Z,93.02
2023-05-14T01:59:47.513Z,93.35
2023-05-14T02:01:52.318Z,93.39
2023-05-14T02:03:57.570Z,93.84
2023-05-14T02:06:02.314Z,94.19
2023-05-14T02:08:07.283Z,94.57
2023-05-14T02:10:12.683Z,94.80
2023-05-14T02:12:17.372Z,94.62
2023-05-14T02:14:22.112Z,94.39
2023-05-14T02:16:26.869Z,94.14
2023-05-14T02:18:32.080Z,93.96
2023-05-14T02:20:36.705Z,94.06
2023-05-14T02:22:41.399Z,94.59
2023-05-14T02:24:46.399Z,94.80
2023-05-14T02:26:51.228Z,94.83
2023-05-14T02:28:57.185Z,96.13
2023-05-14T02:31:02.536Z,95.81
2023-05-14T02:33:07.425Z,96.13
2023-05-14T02:35:12.680Z,95.68
2023-05-14T02:37:17.548Z,95.64
2023-05-14T02:39:22.358Z,95.84
2023-05-14T02:41:27.203Z,96.98
2023-05-14T02:43:32.097Z,96.79
2023-05-14T02:45:37.129Z,96.71
2023-05-14T02:47:41.969Z,96.64
2023-05-14T02:49:46.749Z,96.47
2023-05-14T02:51:51.598Z,96.39
2023-05-14T02:53:56.249Z,96.18
2023-05-14T02:56:01.256Z,96.23
2023-05-14T02:58:05.997Z,95.90
2023-05-14T03:00:13.144Z,96.22
2023-05-14T03:02:18.348Z,96.97
2023-05-14T03:04:23.539Z,96.60
2023-05-14T03:06:28.241Z,96.41
2023-05-14T03:08:32.870Z,96.71
2023-05-14T03:10:37.675Z,96.61
2023-05-14T03:12:42.508Z,96.44
2023-05-14T03:14:50.182Z,96.62
2023-05-14T03:16:55.076Z,96.43
2023-05-14T03:18:59.783Z,96.43
2023-05-14T03:21:04.818Z,96.46
2023-05-14T03:23:09.642Z,96.22
2023-05-14T03:25:14.377Z,96.18
2023-05-14T03:27:19.182Z,95.97
2023-05-14T03:29:24.406Z,96.02
2023-05-14T03:31:32.005Z,95.66
2023-05-14T03:33:37.007Z,95.84
2023-05-14T03:35:41.964Z,95.89
2023-05-14T03:37:49.408Z,95.67
2023-05-14T03:39:54.054Z,95.73
2023-05-14T03:41:58.962Z,95.58
2023-05-14T03:44:03.932Z,95.49
2023-05-14T03:46:09.057Z,95.32
2023-05-14T03:48:13.800Z,95.79
2023-05-14T03:50:18.516Z,95.48
2023-05-14T03:52:23.446Z,95.25
2023-05-14T03:54:28.124Z,95.18
2023-05-14T03:56:32.962Z,94.94
2023-05-14T03:58:37.570Z,94.95
2023-05-14T04:00:43.069Z,95.27
2023-05-14T04:02:48.567Z,95.84
2023-05-14T04:04:53.726Z,95.97
2023-05-14T04:06:58.574Z,96.55
2023-05-14T04:09:06.547Z,95.75
2023-05-14T04:11:11.418Z,96.06
2023-05-14T04:13:16.179Z,96.34
2023-05-14T04:15:21.693Z,96.89
2023-05-14T04:17:26.711Z,97.10
2023-05-14T04:19:31.597Z,96.88
2023-05-14T04:21:36.797Z,97.11
2023-05-14T04:23:41.571Z,96.65
2023-05-14T04:25:46.306Z,96.92
2023-05-14T04:27:51.122Z,97.48
2023-05-14T04:29:55.749Z,97.48
2023-05-14T04:32:00.492Z,97.12
2023-05-14T04:34:05.644Z,97.44
2023-05-14T04:36:10.770Z,97.74
2023-05-14T04:38:15.530Z,97.91
2023-05-14T04:40:20.536Z,98.39
2023-05-14T04:42:25.150Z,98.28
2023-05-14T04:44:33.669Z,98.02
2023-05-14T04:46:39.026Z,98.34
2023-05-14T04:48:43.909Z,97.99
2023-05-14T04:50:48.656Z,97.72
2023-05-14T04:52:53.350Z,97.58
2023-05-14T04:54:58.055Z,98.56
2023-05-14T04:57:02.738Z,98.50
2023-05-14T04:59:07.464Z,98.39
2023-05-14T05:01:12.233Z,97.90
2023-05-14T05:03:17.589Z,98.78
2023-05-14T05:05:23.136Z,97.96
2023-05-14T05:07:27.842Z,98.33
2023-05-14T05:09:35.548Z,98.12
2023-05-14T05:11:40.251Z,98.11
2023-05-14T05:13:45.198Z,98.09
2023-05-14T05:15:50.575Z,98.01
2023-05-14T05:17:55.365Z,98.14
2023-05-14T05:20:00.172Z,98.13
2023-05-14T05:22:05.148Z,97.71
2023-05-14T05:24:10.137Z,97.27
2023-05-14T05:26:14.806Z,97.48
2023-05-14T05:28:19.486Z,97.18
2023-05-14T05:30:24.548Z,97.67
2023-05-14T05:32:29.691Z,97.45
2023-05-14T05:34:34.766Z,97.05
2023-05-14T05:36:39.586Z,97.56
2023-05-14T05:38:44.281Z,97.69
2023-05-14T05:40:49.118Z,97.80
2023-05-14T05:42:53.819Z,97.20
2023-05-14T05:44:58.716Z,97.38
2023-05-14T05:47:03.650Z,96.93
2023-05-14T05:49:08.605Z,96.91
2023-05-14T05:51:13.511Z,96.96
2023-05-14T05:53:18.117Z,97.26
2023-05-14T05:55:23.170Z,96.98
2023-05-14T05:57:27.867Z,97.25
2023-05-14T05:59:32.883Z,97.49
2023-05-14T06:01:37.769Z,97.84
2023-05-14T06:03:42.758Z,98.01
2023-05-14T06:05:47.562Z,97.95
2023-05-14T06:07:52.509Z,97.74
2023-05-14T06:09:57.285Z,97.81
2023-05-14T06:12:02.008Z,97.93
2023-05-14T06:14:06.707Z,98.44
2023-05-14T06:16:11.655Z,98.01
2023-05-14T06:18:16.426Z,98.40
2023-05-14T06:20:21.778Z,98.04
2023-05-14T06:22:27.016Z,98.28
2023-05-14T06:24:31.877Z,97.83
2023-05-14T06:26:36.763Z,98.52
2023-05-14T06:28:41.374Z,99.15
2023-05-14T06:30:51.124Z,99.79
2023-05-14T06:32:55.779Z,99.84
2023-05-14T06:35:01.604Z,99.93
2023-05-14T06:37:06.732Z,100.00
2023-05-14T06:39:11.569Z,99.98
2023-05-14T06:41:16.829Z,100.00
2023-05-14T06:43:21.623Z,100.00
2023-05-14T06:45:26.343Z,100.00
2023-05-14T06:47:31.079Z,100.00
2023-05-14T06:49:36.315Z,100.00
2023-05-14T06:51:40.943Z,100.00
2023-05-14T06:53:45.648Z,100.00
2023-05-14T06:55:50.484Z,100.00
2023-05-14T06:57:55.213Z,100.00
2023-05-14T07:00:00.053Z,100.00
2023-05-14T07:02:04.853Z,100.00
2023-05-14T07:04:09.525Z,100.00
2023-05-14T07:06:14.234Z,100.00
2023-05-14T07:08:20.511Z,100.00
2023-05-14T07:10:25.470Z,100.00
2023-05-14T07:12:30.351Z,100.00
2023-05-14T07:14:35.100Z,100.00
2023-05-14T07:16:40.140Z,100.00
2023-05-14T07:18:44.997Z,100.00
2023-05-14T07:20:49.723Z,100.00
2023-05-14T07:22:54.913Z,100.00
2023-05-14T07:24:59.541Z,100.00
2023-05-14T07:27:04.767Z,100.00
2023-05-14T07:29:09.415Z,100.00
2023-05-14T07:31:14.196Z,100.00
2023-05-14T07:33:18.806Z,100.00
2023-05-14T07:35:23.608Z,100.00
2023-05-14T07:37:29.301Z,100.00
2023-05-14T07:39:33.984Z,100.00
2023-05-14T07:41:38.669Z,100.00
2023-05-14T07:43:43.784Z,100.00
2023-05-14T07:45:48.602Z,100.00
2023-05-14T07:47:53.228Z,100.00
2023-05-14T07:49:58.524Z,100.00
2023-05-14T07:52:03.279Z,100.00
2023-05-14T07:54:08.258Z,100.00
2023-05-14T07:56:12.872Z,100.00
2023-05-14T07:58:17.496Z,100.00
2023-05-14T08:00:22.521Z,100.00
2023-05-14T08:02:27.417Z,100.00
2023-05-14T08:04:32.154Z,100.00
2023-05-14T08:06:36.793Z,100.00
2023-05-14T08:08:41.693Z,100.00
2023-05-14T08:10:46.396Z,100.00
2023-05-14T08:12:51.109Z,100.00
2023-05-14T08:14:55.784Z,100.00
2023-05-14T08:17:00.623Z,100.00
2023-05-14T08:19:05.596Z,100.00
2023-05-14T08:21:10.280Z,100.00
2023-05-14T08:23:15.500Z,100.00
2023-05-14T08:25:20.327Z,100.00
2023-05-14T08:27:24.986Z,100.00
2023-05-14T08:29:29.610Z,100.00
2023-05-14T08:31:34.237Z,100.00
2023-05-14T08:33:38.859Z,100.00
2023-05-14T08:35:43.680Z,100.00
2023-05-14T08:37:48.406Z,100.00
2023-05-14T08:39:53.044Z,100.00
2023-05-14T08:42:00.438Z,100.00
2023-05-14T08:44:11.806Z,100.00
2023-05-14T08:46:21.440Z,100.00
2023-05-14T08:48:32.012Z,100.00
2023-05-14T08:50:37.025Z,100.00
2023-05-14T08:52:41.704Z,100.00
2023-05-14T08:54:48.146Z,100.00
2023-05-14T08:56:53.127Z,100.00
2023-05-14T08:58:57.837Z,100.00
2023-05-14T09:01:02.523Z,100.00
2023-05-14T09:03:08.350Z,100.00
2023-05-14T09:05:14.806Z,100.00
2023-05-14T09:07:19.827Z,100.00
2023-05-14T09:09:25.196Z,100.00
2023-05-14T09:11:30.025Z,100.00
2023-05-14T09:13:36.516Z,100.00
2023-05-14T09:15:41.377Z,100.00
2023-05-14T09:17:49.579Z,100.00
2023-05-14T09:19:54.675Z,100.00
2023-05-14T09:22:00.089Z,100.00
2023-05-14T09:24:05.367Z,100.00
2023-05-14T09:26:11.891Z,100.00
2023-05-14T09:28:18.680Z,100.00
2023-05-14T09:30:24.485Z,100.00
2023-05-14T09:32:35.051Z,100.00
2023-05-14T09:34:41.587Z,100.00
2023-05-14T09:36:46.310Z,100.00
2023-05-14T09:38:51.156Z,100.00
2023-05-14T09:40:56.192Z,100.00
2023-05-14T09:43:01.316Z,100.00
2023-05-14T09:45:07.659Z,100.00
2023-05-14T09:47:12.397Z,100.00
2023-05-14T09:49:18.707Z,100.00
2023-05-14T09:51:23.735Z,100.00
2023-05-14T09:53:28.470Z,100.00
2023-05-14T09:55:33.596Z,100.00
2023-05-14T09:57:38.305Z,100.00
2023-05-14T09:59:44.393Z,100.00
2023-05-14T10:01:49.895Z,100.00
2023-05-14T10:03:55.338Z,100.00
2023-05-14T10:06:04.662Z,100.00
2023-05-14T10:08:13.432Z,100.00
2023-05-14T10:10:21.921Z,100.00
2023-05-14T10:12:33.848Z,100.00
2023-05-14T10:14:43.140Z,100.00
2023-05-14T10:16:50.512Z,100.00
2023-05-14T10:19:00.790Z,100.00
2023-05-14T10:21:07.470Z,100.00
2023-05-14T10:23:13.000Z,100.00
2023-05-14T10:25:19.671Z,100.00
2023-05-14T10:27:24.904Z,100.00
2023-05-14T10:29:35.797Z,100.00
2023-05-14T10:31:52.246Z,100.00
2023-05-14T10:33:59.222Z,100.00
2023-05-14T10:36:06.533Z,100.00
2023-05-14T10:38:14.766Z,100.00
2023-05-14T10:40:23.191Z,100.00
2023-05-14T10:42:35.069Z,100.00
2023-05-14T10:44:47.053Z,100.00
2023-05-14T10:46:52.166Z,100.00
2023-05-14T10:48:58.315Z,100.00
2023-05-14T10:51:03.280Z,100.00
2023-05-14T10:53:13.006Z,100.00
2023-05-14T10:55:18.437Z,100.00
2023-05-14T10:57:24.980Z,100.00
2023-05-14T10:59:30.260Z,100.00
2023-05-14T11:01:34.951Z,100.00
2023-05-14T11:03:43.138Z,100.00
2023-05-14T11:05:48.746Z,100.00
2023-05-14T11:07:55.946Z,100.00
2023-05-14T11:10:04.405Z,100.00
2023-05-14T11:12:10.355Z,100.00
2023-05-14T11:14:15.010Z,100.00
2023-05-14T11:16:23.228Z,100.00
2023-05-14T11:18:33.323Z,100.00
2023-05-14T11:20:38.150Z,100.00
2023-05-14T11:22:44.891Z,100.00
2023-05-14T11:24:49.886Z,100.00
2023-05-14T11:26:54.720Z,100.00
2023-05-14T11:28:59.853Z,100.00
2023-05-14T11:31:04.509Z,100.00
2023-05-14T11:33:09.426Z,100.00
2023-05-14T11:35:14.729Z,100.00
2023-05-14T11:37:19.397Z,100.00
2023-05-14T11:39:24.031Z,100.00
2023-05-14T11:41:28.788Z,100.00
2023-05-14T11:43:36.175Z,100.00
2023-05-14T11:45:40.929Z,100.00
2023-05-14T11:47:45.633Z,100.00
2023-05-14T11:49:50.571Z,100.00
2023-05-14T11:52:00.375Z,100.00
2023-05-14T11:54:05.184Z,100.00
2023-05-14T11:56:10.042Z,100.00
2023-05-14T11:58:14.922Z,100.00
2023-05-14T12:00:20.727Z,100.00
2023-05-14T12:02:28.692Z,100.00
2023-05-14T12:04:33.704Z,100.00
2023-05-14T12:06:40.348Z,100.00
2023-05-14T12:08:47.618Z,100.00
2023-05-14T12:10:52.528Z,100.00
2023-05-14T12:12:57.349Z,100.00
2023-05-14T12:15:02.088Z,100.00
2023-05-14T12:17:14.653Z,100.00
2023-05-14T12:19:20.038Z,100.00
2023-05-14T12:21:26.427Z,100.00
2023-05-14T12:23:33.095Z,100.00
2023-05-14T12:25:39.597Z,100.00
2023-05-14T12:27:45.967Z,100.00
2023-05-14T12:29:50.877Z,100.00
2023-05-14T12:31:57.161Z,100.00
2023-05-14T12:34:02.264Z,100.00
2023-05-14T12:38:14.621Z,100.00
2023-05-14T12:40:19.445Z,100.00
2023-05-14T12:42:24.190Z,100.00
2023-05-14T12:44:29.083Z,100.00
2023-05-14T12:46:35.812Z,100.00
2023-05-14T12:48:40.487Z,100.00
2023-05-14T12:50:45.090Z,100.00
2023-05-14T12:52:49.754Z,100.00
2023-05-14T12:54:54.318Z,100.00
2023-05-14T12:56:59.113Z,100.00
2023-05-14T12:59:03.820Z,100.00
2023-05-14T13:01:08.528Z,100.00
2023-05-14T13:03:13.262Z,100.00
2023-05-14T13:05:18.307Z,100.00
2023-05-14T13:07:23.003Z,100.00
2023-05-14T13:09:27.752Z,100.00
2023-05-14T13:11:32.535Z,100.00
2023-05-14T13:13:37.212Z,100.00
2023-05-14T13:15:41.864Z,100.00
2023-05-14T13:17:46.492Z,100.00
2023-05-14T13:19:51.232Z,100.00
2023-05-14T13:21:55.958Z,100.00
2023-05-14T13:24:00.584Z,100.00
2023-05-14T13:26:07.986Z,100.00
2023-05-14T13:28:12.635Z,100.00
2023-05-14T13:30:18.812Z,100.00
2023-05-14T13:32:24.686Z,100.00
2023-05-14T13:34:29.384Z,100.00
2023-05-14T13:36:34.080Z,100.00
2023-05-14T13:38:38.882Z,100.00
2023-05-14T13:40:43.559Z,100.00
2023-05-14T13:42:48.225Z,100.00
2023-05-14T13:44:56.005Z,100.00
2023-05-14T13:47:00.756Z,100.00
2023-05-14T13:49:08.204Z,100.00
2023-05-14T13:51:12.920Z,100.00
2023-05-14T13:53:18.007Z,100.00
2023-05-14T13:55:22.942Z,100.00
2023-05-14T13:57:27.859Z,100.00
2023-05-14T13:59:32.464Z,100.00
2023-05-14T14:01:37.231Z,100.00
2023-05-14T14:03:41.873Z,100.00
2023-05-14T14:05:46.543Z,100.00
2023-05-14T14:07:52.918Z,100.00
2023-05-14T14:09:59.448Z,100.00
2023-05-14T14:12:04.885Z,100.00
2023-05-14T14:14:09.576Z,100.00
2023-05-14T14:16:14.331Z,100.00
2023-05-14T14:18:20.268Z,100.00
2023-05-14T14:20:24.941Z,100.00
2023-05-14T14:22:30.320Z,100.00
2023-05-14T14:24:34.997Z,100.00
2023-05-14T14:26:39.735Z,100.00
2023-05-14T14:28:44.457Z,100.00
2023-05-14T14:30:50.374Z,100.00
2023-05-14T14:32:55.132Z,100.00
2023-05-14T14:34:59.897Z,100.00
2023-05-14T14:37:05.120Z,100.00
2023-05-14T14:39:09.886Z,100.00
2023-05-14T14:41:14.620Z,100.00
2023-05-14T14:43:19.287Z,100.00
2023-05-14T14:45:24.657Z,100.00
2023-05-14T14:47:29.736Z,100.00
2023-05-14T14:49:34.433Z,100.00
2023-05-14T14:51:39.140Z,100.00
2023-05-14T14:53:43.789Z,100.00
2023-05-14T14:55:48.815Z,100.00
2023-05-14T14:57:53.399Z,100.00
2023-05-14T14:59:58.757Z,100.00
2023-05-14T15:02:04.331Z,100.00
2023-05-14T15:04:08.965Z,100.00
2023-05-14T15:06:13.720Z,100.00
2023-05-14T15:08:18.486Z,100.00
2023-05-14T15:10:23.274Z,100.00
2023-05-14T15:12:28.032Z,100.00
2023-05-14T15:14:32.761Z,100.00
2023-05-14T15:16:37.523Z,100.00
2023-05-14T15:18:42.389Z,100.00
2023-05-14T15:20:47.095Z,100.00
2023-05-14T15:22:52.376Z,100.00
2023-05-14T15:24:57.083Z,100.00
2023-05-14T15:27:01.739Z,100.00
2023-05-14T15:29:06.775Z,100.00
2023-05-14T15:31:11.567Z,100.00
2023-05-14T15:33:16.245Z,100.00
2023-05-14T15:35:21.013Z,100.00
2023-05-14T15:37:26.486Z,100.00
2023-05-14T15:39:31.204Z,100.00
2023-05-14T15:41:35.933Z,100.00
2023-05-14T15:43:40.662Z,100.00
2023-05-14T15:45:46.134Z,100.00
2023-05-14T15:47:50.828Z,100.00
2023-05-14T15:49:55.871Z,100.00
2023-05-14T15:52:01.001Z,100.00
2023-05-14T15:54:05.948Z,100.00
2023-05-14T15:56:10.952Z,100.00
2023-05-14T15:58:15.688Z,100.00
2023-05-14T16:00:21.533Z,100.00
2023-05-14T16:02:26.477Z,100.00
2023-05-14T16:04:31.147Z,100.00
2023-05-14T16:06:36.534Z,100.00
2023-05-14T16:08:41.213Z,100.00
2023-05-14T16:10:45.861Z,100.00
2023-05-14T16:12:50.488Z,100.00
2023-05-14T16:14:55.089Z,100.00
2023-05-14T16:16:59.799Z,100.00
2023-05-14T16:19:04.623Z,100.00
2023-05-14T16:21:09.333Z,100.00
2023-05-14T16:23:14.019Z,100.00
2023-05-14T16:25:18.892Z,100.00
2023-05-14T16:27:23.620Z,100.00
2023-05-14T16:29:28.287Z,100.00
2023-05-14T16:31:33.185Z,100.00
2023-05-14T16:33:37.833Z,100.00
2023-05-14T16:35:42.725Z,100.00
2023-05-14T16:37:47.377Z,100.00
2023-05-14T16:39:52.081Z,100.00
2023-05-14T16:41:56.791Z,100.00
2023-05-14T16:44:01.383Z,100.00
2023-05-14T16:46:08.996Z,100.00
2023-05-14T16:48:13.876Z,100.00
2023-05-14T16:50:18.691Z,100.00
2023-05-14T16:52:23.382Z,100.00
2023-05-14T16:54:28.152Z,100.00
2023-05-14T16:56:32.827Z,100.00
2023-05-14T16:58:37.664Z,100.00
2023-05-14T17:00:42.532Z,100.00
2023-05-14T17:02:47.392Z,100.00
2023-05-14T17:04:52.494Z,100.00
2023-05-14T17:06:57.587Z,100.00
2023-05-14T17:09:02.714Z,100.00
2023-05-14T17:11:07.744Z,100.00
2023-05-14T17:13:15.812Z,100.00
2023-05-14T17:15:20.627Z,100.00
2023-05-14T17:17:25.385Z,100.00
2023-05-14T17:19:30.236Z,100.00
2023-05-14T17:21:35.361Z,100.00
2023-05-14T17:23:40.071Z,100.00
2023-05-14T17:25:45.222Z,100.00
2023-05-14T17:27:49.930Z,100.00
2023-05-14T17:29:54.662Z,100.00
2023-05-14T17:31:59.643Z,100.00
2023-05-14T17:34:04.440Z,100.00
2023-05-14T17:36:09.434Z,100.00
2023-05-14T17:38:14.318Z,100.00
2023-05-14T17:40:19.205Z,100.00
2023-05-14T17:42:24.221Z,100.00
2023-05-14T17:44:29.063Z,100.00
2023-05-14T17:46:33.849Z,100.00
2023-05-14T17:48:38.642Z,100.00
2023-05-14T17:50:43.317Z,100.00
2023-05-14T17:52:48.157Z,100.00
2023-05-14T17:54:53.116Z,100.00
2023-05-14T17:57:00.996Z,100.00
2023-05-14T17:59:05.650Z,100.00
2023-05-14T18:01:11.108Z,100.00
2023-05-14T18:03:17.847Z,100.00
2023-05-14T18:05:24.012Z,100.00
2023-05-14T18:07:29.747Z,100.00
2023-05-14T18:09:34.963Z,100.00
2023-05-14T18:11:40.405Z,100.00
2023-05-14T18:13:45.057Z,100.00
2023-05-14T18:15:49.955Z,100.00
2023-05-14T18:17:54.878Z,100.00
2023-05-14T18:20:00.263Z,100.00
2023-05-14T18:22:05.740Z,100.00
2023-05-14T18:24:10.948Z,100.00
2023-05-14T18:26:16.975Z,100.00
2023-05-14T18:28:22.194Z,100.00
2023-05-14T18:30:27.413Z,100.00
2023-05-14T18:32:33.034Z,100.00
2023-05-14T18:34:37.839Z,100.00
2023-05-14T18:36:43.455Z,100.00
2023-05-14T18:38:48.320Z,100.00
2023-05-14T18:40:54.546Z,100.00
2023-05-14T18:43:01.093Z,100.00
2023-05-14T18:45:07.089Z,100.00
2023-05-14T18:47:12.470Z,100.00
2023-05-14T18:49:17.396Z,100.00
2023-05-14T18:51:22.800Z,100.00
2023-05-14T18:53:28.200Z,100.00
2023-05-14T18:55:33.283Z,100.00
2023-05-14T18:57:38.775Z,100.00
2023-05-14T18:59:45.918Z,100.00
2023-05-14T19:01:50.902Z,100.00
2023-05-14T19:03:56.217Z,100.00
2023-05-14T19:06:01.654Z,100.00
2023-05-14T19:08:07.921Z,100.00
2023-05-14T19:10:13.160Z,100.00
2023-05-14T19:12:20.021Z,100.00
2023-05-14T19:14:24.868Z,100.00
2023-05-14T19:16:30.277Z,100.00
2023-05-14T19:18:35.367Z,100.00
2023-05-14T19:20:40.088Z,100.00
2023-05-14T19:22:45.048Z,100.00
2023-05-14T19:27:02.565Z,100.00
2023-05-14T19:29:07.795Z,100.00
2023-05-14T19:31:13.131Z,100.00
2023-05-14T19:33:17.916Z,100.00
2023-05-14T19:35:26.731Z,100.00
2023-05-14T19:37:31.990Z,100.00
2023-05-14T19:39:36.944Z,100.00
2023-05-14T19:41:44.940Z,100.00
2023-05-14T19:43:50.391Z,100.00
2023-05-14T19:45:55.379Z,100.00
2023-05-14T19:48:00.335Z,100.00
2023-05-14T19:50:05.998Z,100.00
2023-05-14T19:52:10.934Z,100.00
2023-05-14T19:54:15.939Z,100.00
2023-05-14T19:56:20.732Z,100.00
2023-05-14T19:58:26.522Z,100.00
2023-05-14T20:00:31.357Z,100.00
2023-05-14T20:02:36.162Z,100.00
2023-05-14T20:04:40.901Z,100.00
2023-05-14T20:06:46.429Z,100.00
2023-05-14T20:08:51.716Z,100.00
2023-05-14T20:10:56.435Z,100.00
2023-05-14T20:13:01.453Z,100.00
2023-05-14T20:15:07.681Z,100.00
2023-05-14T20:17:12.546Z,100.00
2023-05-14T20:19:17.499Z,100.00
2023-05-14T20:21:22.999Z,100.00
2023-05-14T20:23:28.354Z,100.00
2023-05-14T20:25:33.639Z,100.00
2023-05-14T20:27:38.614Z,100.00
2023-05-14T20:29:43.626Z,100.00
2023-05-14T20:31:48.322Z,100.00
2023-05-14T20:33:52.985Z,100.00
2023-05-14T20:35:57.781Z,100.00
2023-05-14T20:38:02.578Z,100.00
2023-05-14T20:40:09.428Z,100.00
2023-05-14T20:42:14.284Z,100.00
2023-05-14T20:44:20.612Z,100.00
2023-05-14T20:46:25.694Z,100.00
2023-05-14T20:48:30.471Z,100.00
2023-05-14T20:50:35.140Z,100.00
2023-05-14T20:52:39.809Z,100.00
2023-05-14T20:54:47.797Z,100.00
2023-05-14T20:56:55.315Z,100.00
2023-05-14T20:59:00.054Z,100.00
2023-05-14T21:01:04.850Z,100.00
2023-05-14T21:03:09.865Z,100.00
2023-05-14T21:05:16.641Z,100.00
2023-05-14T21:07:21.297Z,100.00
2023-05-14T21:09:26.037Z,100.00
2023-05-14T21:11:30.705Z,100.00
2023-05-14T21:13:35.463Z,100.00
2023-05-14T21:15:40.260Z,100.00
2023-05-14T21:17:45.032Z,100.00
2023-05-14T21:19:49.814Z,100.00
2023-05-14T21:21:54.531Z,100.00
2023-05-14T21:23:59.216Z,100.00
2023-05-14T21:26:04.093Z,100.00
2023-05-14T21:28:09.312Z,100.00
2023-05-14T21:30:15.502Z,100.00
2023-05-14T21:32:20.163Z,100.00
2023-05-14T21:34:25.005Z,100.00
2023-05-14T21:36:29.656Z,100.00
2023-05-14T21:38:34.386Z,100.00
2023-05-14T21:40:39.200Z,100.00
2023-05-14T21:42:43.861Z,100.00
2023-05-14T21:44:48.550Z,100.00
2023-05-14T21:46:53.336Z,100.00
2023-05-14T21:48:58.354Z,100.00
2023-05-14T21:51:03.229Z,100.00
2023-05-14T21:53:08.095Z,100.00
2023-05-14T21:55:12.881Z,100.00
2023-05-14T21:57:17.648Z,100.00
2023-05-14T21:59:22.397Z,100.00
2023-05-14T22:01:27.240Z,100.00
2023-05-14T22:03:32.031Z,100.00
2023-05-14T22:05:36.700Z,100.00
2023-05-14T22:07:41.664Z,100.00
2023-05-14T22:09:46.317Z,100.00
2023-05-14T22:11:51.040Z,100.00
2023-05-14T22:13:58.218Z,100.00
2023-05-14T22:16:12.196Z,100.00
2023-05-14T22:18:18.416Z,100.00
2023-05-14T22:20:23.263Z,100.00
2023-05-14T22:22:28.221Z,100.00
2023-05-14T22:24:32.900Z,100.00
2023-05-14T22:26:37.596Z,100.00
2023-05-14T22:28:42.213Z,100.00
2023-05-14T22:30:46.881Z,100.00
2023-05-14T22:32:51.592Z,100.00
2023-05-14T22:34:56.312Z,100.00
2023-05-14T22:37:01.572Z,100.00
2023-05-14T22:39:06.315Z,100.00
2023-05-14T22:41:11.004Z,100.00
2023-05-14T22:43:15.696Z,100.00
2023-05-14T22:45:20.265Z,100.00
2023-05-14T22:47:24.924Z,100.00
2023-05-14T22:49:29.664Z,100.00
2023-05-14T22:51:34.346Z,100.00
2023-05-14T22:53:39.118Z,100.00
2023-05-14T22:55:43.862Z,100.00
2023-05-14T22:57:48.590Z,100.00
2023-05-14T22:59:53.246Z,100.00
2023-05-14T23:01:57.873Z,100.00
2023-05-14T23:04:02.967Z,100.00
2023-05-14T23:06:08.206Z,100.00
2023-05-14T23:08:12.827Z,100.00
2023-05-14T23:10:17.528Z,100.00
2023-05-14T23:12:22.179Z,100.00
2023-05-14T23:14:26.810Z,100.00
2023-05-14T23:16:31.446Z,100.00
2023-05-14T23:18:36.287Z,100.00
2023-05-14T23:20:41.102Z,100.00
2023-05-14T23:22:45.769Z,100.00
2023-05-14T23:24:50.438Z,100.00
2023-05-14T23:26:55.254Z,100.00
2023-05-14T23:28:59.928Z,100.00
2023-05-14T23:31:04.619Z,100.00
2023-05-14T23:33:09.355Z,100.00
2023-05-14T23:35:17.365Z,100.00
2023-05-14T23:37:22.249Z,100.00
2023-05-14T23:39:26.935Z,100.00
2023-05-14T23:41:31.582Z,100.00
2023-05-14T23:43:36.274Z,100.00
2023-05-14T23:45:41.470Z,100.00
2023-05-14T23:47:46.384Z,100.00
2023-05-14T23:49:51.061Z,100.00
2023-05-14T23:51:55.710Z,100.00
2023-05-14T23:54:00.438Z,100.00
2023-05-14T23:56:05.438Z,100.00
2023-05-14T23:58:10.246Z,100.00
